Wetterdaten: Woche 20.03.06 - 26.03.06 (KW12)
Datum Zeit Temperatur Luftfeuchte Luftdruck Niederschlag Wind Richtung Sonne Solar Taupunkt Windchill
20.03.2006 00:00 -1.9 C 86 % 1012.6 hPa 0.0 l/m 0.3 km/h (0 Bft) SO 0.00 h 0 W/m -3.9 C -1.9 C
20.03.2006 01:00 -2.2 C 88 % 1012.7 hPa 0.0 l/m 0.0 km/h (0 Bft) N 0.00 h 0 W/m -3.9 C -2.2 C
20.03.2006 02:00 -2.8 C 90 % 1012.8 hPa 0.0 l/m 1.4 km/h (1 Bft) SO 0.00 h 0 W/m -4.3 C -3.0 C
20.03.2006 03:00 -3.4 C 90 % 1012.9 hPa 0.0 l/m 0.3 km/h (0 Bft) SO 0.00 h 0 W/m -4.9 C -3.4 C
20.03.2006 04:00 -3.6 C 90 % 1012.9 hPa 0.0 l/m 0.0 km/h (0 Bft) N 0.00 h 0 W/m -5.0 C -3.6 C
20.03.2006 05:00 -3.8 C 90 % 1012.9 hPa 0.0 l/m 0.0 km/h (0 Bft) N 0.00 h 0 W/m -5.2 C -3.8 C
20.03.2006 06:00 -4.1 C 91 % 1013.0 hPa 0.0 l/m 0.0 km/h (0 Bft) N 0.00 h 15 W/m -5.4 C -4.1 C
20.03.2006 07:00 -3.1 C 90 % 1012.8 hPa 0.0 l/m 0.0 km/h (0 Bft) N 0.00 h 80 W/m -4.4 C -3.1 C
20.03.2006 08:00 -1.4 C 90 % 1012.6 hPa 0.0 l/m 0.0 km/h (0 Bft) N 1.00 h 240 W/m -2.9 C -1.4 C
20.03.2006 09:00 1.1 C 77 % 1012.2 hPa 0.0 l/m 0.1 km/h (0 Bft) N 1.00 h 406 W/m -2.4 C 1.1 C
20.03.2006 10:00 4.4 C 61 % 1011.3 hPa 0.0 l/m 1.4 km/h (1 Bft) SO 1.00 h 530 W/m -2.4 C 4.3 C
20.03.2006 11:00 7.4 C 51 % 1010.3 hPa 0.0 l/m 1.6 km/h (1 Bft) SW 1.00 h 609 W/m -2.2 C 7.3 C
20.03.2006 12:00 11.7 C 42 % 1008.7 hPa 0.0 l/m 9.7 km/h (2 Bft) NW 1.00 h 648 W/m -0.6 C 11.7 C
20.03.2006 13:00 13.9 C 35 % 1007.9 hPa 0.0 l/m 9.2 km/h (2 Bft) W-NW 1.00 h 657 W/m -1.2 C 13.9 C
20.03.2006 14:00 15.2 C 24 % 1007.1 hPa 0.0 l/m 10.7 km/h (2 Bft) W-NW 1.00 h 558 W/m -5.5 C 15.2 C
20.03.2006 15:00 16.3 C 20 % 1006.4 hPa 0.0 l/m 13.2 km/h (3 Bft) NW 1.00 h 491 W/m -6.6 C 16.3 C
20.03.2006 16:00 14.7 C 38 % 1006.2 hPa 0.0 l/m 5.5 km/h (1 Bft) S 0.37 h 193 W/m 0.5 C 14.7 C
20.03.2006 17:00 13.2 C 44 % 1006.4 hPa 0.0 l/m 3.5 km/h (1 Bft) S-SO 0.00 h 47 W/m 1.4 C 13.2 C
20.03.2006 18:00 12.4 C 46 % 1007.5 hPa 0.0 l/m 1.3 km/h (1 Bft) S-SO 0.00 h 15 W/m 1.1 C 12.4 C
20.03.2006 19:00 11.2 C 51 % 1007.7 hPa 0.0 l/m 6.1 km/h (2 Bft) S-SO 0.00 h 0 W/m 1.5 C 11.2 C
20.03.2006 20:00 9.9 C 61 % 1007.8 hPa 0.0 l/m 1.5 km/h (1 Bft) SO 0.00 h 0 W/m 2.7 C 9.8 C
20.03.2006 21:00 8.3 C 70 % 1008.6 hPa 0.0 l/m 2.3 km/h (1 Bft) SO 0.00 h 0 W/m 3.1 C 8.1 C
20.03.2006 22:00 7.6 C 74 % 1009.2 hPa 0.0 l/m 2.3 km/h (1 Bft) O-SO 0.00 h 0 W/m 3.1 C 7.3 C
20.03.2006 23:00 6.7 C 74 % 1009.3 hPa 0.0 l/m 0.0 km/h (0 Bft) N 0.00 h 0 W/m 2.3 C 6.7 C
21.03.2006 00:00 5.9 C 74 % 1008.8 hPa 0.0 l/m 0.0 km/h (0 Bft) N 0.00 h 0 W/m 1.7 C 5.9 C
21.03.2006 01:00 4.8 C 75 % 1008.5 hPa 0.0 l/m 0.0 km/h (0 Bft) N 0.00 h 0 W/m 0.8 C 4.8 C
21.03.2006 02:00 4.3 C 81 % 1008.6 hPa 0.0 l/m 1.2 km/h (1 Bft) SO 0.00 h 0 W/m 1.3 C 4.1 C
21.03.2006 03:00 4.0 C 86 % 1008.0 hPa 0.0 l/m 0.8 km/h (0 Bft) SO 0.00 h 0 W/m 1.8 C 3.9 C
21.03.2006 04:00 4.3 C 89 % 1007.8 hPa 1.0 l/m 4.7 km/h (1 Bft) SO 0.00 h 0 W/m 2.6 C 3.2 C
21.03.2006 05:00 4.0 C 92 % 1007.6 hPa 0.0 l/m 0.9 km/h (0 Bft) S 0.00 h 0 W/m 2.9 C 3.9 C
21.03.2006 06:00 4.1 C 96 % 1007.6 hPa 0.0 l/m 0.6 km/h (0 Bft) S 0.00 h 9 W/m 3.5 C 4.1 C
21.03.2006 07:00 4.5 C 98 % 1007.5 hPa 0.0 l/m 0.0 km/h (0 Bft) N 0.00 h 32 W/m 4.2 C 4.5 C
21.03.2006 08:00 4.9 C 97 % 1007.5 hPa 0.0 l/m 0.0 km/h (0 Bft) N 0.00 h 54 W/m 4.5 C 4.9 C
21.03.2006 09:00 5.9 C 94 % 1007.3 hPa 0.0 l/m 0.8 km/h (0 Bft) NW 0.30 h 253 W/m 5.0 C 5.9 C
21.03.2006 10:00 7.4 C 86 % 1006.9 hPa 0.0 l/m 0.8 km/h (0 Bft) W-NW 0.23 h 321 W/m 5.1 C 7.3 C
21.03.2006 11:00 8.6 C 74 % 1005.9 hPa 0.0 l/m 0.1 km/h (0 Bft) N 0.00 h 174 W/m 4.3 C 8.6 C
21.03.2006 12:00 9.4 C 74 % 1005.8 hPa 0.0 l/m 1.0 km/h (0 Bft) NW 0.00 h 239 W/m 5.1 C 9.3 C
21.03.2006 13:00 9.8 C 77 % 1005.8 hPa 0.6 l/m 0.0 km/h (0 Bft) N 0.00 h 147 W/m 6.0 C 9.8 C
21.03.2006 14:00 10.1 C 84 % 1005.7 hPa 0.3 l/m 0.1 km/h (0 Bft) N 0.00 h 178 W/m 7.5 C 10.1 C
21.03.2006 15:00 10.2 C 81 % 1005.3 hPa 0.0 l/m 2.7 km/h (1 Bft) NW 0.00 h 165 W/m 7.2 C 10.2 C
21.03.2006 16:00 10.0 C 80 % 1004.7 hPa 0.0 l/m 2.5 km/h (1 Bft) W-NW 0.00 h 128 W/m 6.8 C 9.9 C
21.03.2006 17:00 9.6 C 86 % 1004.7 hPa 0.3 l/m 0.2 km/h (0 Bft) W-NW 0.00 h 32 W/m 7.3 C 9.6 C
21.03.2006 18:00 9.0 C 87 % 1004.8 hPa 0.0 l/m 1.4 km/h (1 Bft) S-SO 0.00 h 6 W/m 7.0 C 8.9 C
21.03.2006 19:00 8.4 C 90 % 1005.8 hPa 0.3 l/m 3.4 km/h (1 Bft) SO 0.00 h 0 W/m 6.8 C 8.1 C
21.03.2006 20:00 7.5 C 90 % 1006.1 hPa 0.0 l/m 0.4 km/h (0 Bft) O 0.00 h 0 W/m 6.0 C 7.5 C
21.03.2006 21:00 7.0 C 93 % 1006.1 hPa 0.0 l/m 0.0 km/h (0 Bft) N 0.00 h 0 W/m 5.9 C 7.0 C
21.03.2006 22:00 6.7 C 98 % 1006.2 hPa 0.0 l/m 0.4 km/h (0 Bft) O-NO 0.00 h 0 W/m 6.3 C 6.7 C
21.03.2006 23:00 6.8 C 100 % 1006.2 hPa 0.0 l/m 0.0 km/h (0 Bft) N 0.00 h 0 W/m 6.8 C 6.8 C
22.03.2006 00:00 6.5 C 100 % 1006.2 hPa 0.0 l/m 0.0 km/h (0 Bft) S-SO 0.00 h 0 W/m 6.5 C 6.5 C
22.03.2006 01:00 6.4 C 100 % 1006.2 hPa 0.0 l/m 0.0 km/h (0 Bft) N 0.00 h 0 W/m 6.4 C 6.4 C
22.03.2006 02:00 6.2 C 100 % 1006.3 hPa 0.0 l/m 0.0 km/h (0 Bft) N 0.00 h 0 W/m 6.2 C 6.2 C
22.03.2006 03:00 6.3 C 100 % 1006.2 hPa 0.0 l/m 0.2 km/h (0 Bft) NO 0.00 h 0 W/m 6.3 C 6.3 C
22.03.2006 04:00 6.2 C 100 % 1006.3 hPa 0.0 l/m 0.0 km/h (0 Bft) N 0.00 h 0 W/m 6.2 C 6.2 C
22.03.2006 05:00 6.4 C 100 % 1006.2 hPa 0.0 l/m 0.0 km/h (0 Bft) N 0.00 h 0 W/m 6.4 C 6.4 C
22.03.2006 06:00 6.3 C 100 % 1006.2 hPa 0.0 l/m 0.6 km/h (0 Bft) NO 0.00 h 7 W/m 6.2 C 6.3 C
22.03.2006 07:00 6.4 C 100 % 1006.2 hPa 0.0 l/m 0.3 km/h (0 Bft) NO 0.00 h 41 W/m 6.4 C 6.4 C
22.03.2006 08:00 7.2 C 100 % 1006.7 hPa 0.0 l/m 0.0 km/h (0 Bft) N 0.00 h 120 W/m 7.2 C 7.2 C
22.03.2006 09:00 8.6 C 89 % 1007.0 hPa 0.0 l/m 0.7 km/h (0 Bft) N 0.00 h 187 W/m 6.8 C 8.6 C
22.03.2006 10:00 9.9 C 78 % 1006.8 hPa 0.0 l/m 2.1 km/h (1 Bft) NW 0.57 h 370 W/m 6.2 C 9.8 C
22.03.2006 11:00 11.0 C 72 % 1006.6 hPa 0.0 l/m 0.6 km/h (0 Bft) N 0.63 h 522 W/m 6.2 C 11.0 C
22.03.2006 12:00 12.7 C 60 % 1005.7 hPa 0.0 l/m 2.5 km/h (1 Bft) NW 1.00 h 677 W/m 5.2 C 12.7 C
22.03.2006 13:00 12.9 C 55 % 1004.7 hPa 0.0 l/m 0.3 km/h (0 Bft) N 0.18 h 269 W/m 4.0 C 12.9 C
22.03.2006 14:00 13.9 C 48 % 1004.1 hPa 0.0 l/m 1.6 km/h (1 Bft) NW 0.25 h 316 W/m 2.9 C 13.9 C
22.03.2006 15:00 14.9 C 47 % 1003.0 hPa 0.0 l/m 2.1 km/h (1 Bft) NW 0.72 h 424 W/m 3.7 C 14.9 C
22.03.2006 16:00 12.7 C 55 % 1003.4 hPa 0.0 l/m 3.1 km/h (1 Bft) N 1.00 h 313 W/m 3.8 C 12.7 C
22.03.2006 17:00 8.4 C 73 % 1004.9 hPa 0.0 l/m 2.4 km/h (1 Bft) N 0.00 h 60 W/m 3.8 C 8.3 C
22.03.2006 18:00 6.3 C 82 % 1006.2 hPa 0.0 l/m 1.2 km/h (1 Bft) N 0.00 h 13 W/m 3.4 C 6.2 C
22.03.2006 19:00 5.7 C 85 % 1006.3 hPa 0.0 l/m 0.1 km/h (0 Bft) N 0.00 h 0 W/m 3.4 C 5.7 C
22.03.2006 20:00 5.8 C 82 % 1006.6 hPa 0.0 l/m 0.5 km/h (0 Bft) N 0.00 h 0 W/m 3.0 C 5.8 C
22.03.2006 21:00 5.9 C 76 % 1007.3 hPa 0.0 l/m 1.1 km/h (1 Bft) N 0.00 h 0 W/m 2.0 C 5.9 C
22.03.2006 22:00 5.4 C 82 % 1007.2 hPa 3.9 l/m 0.4 km/h (0 Bft) NO 0.00 h 0 W/m 2.5 C 5.4 C
22.03.2006 23:00 4.9 C 88 % 1006.4 hPa 0.0 l/m 0.1 km/h (0 Bft) N 0.00 h 0 W/m 3.2 C 4.9 C
23.03.2006 00:00 4.9 C 90 % 1006.7 hPa 0.0 l/m 0.4 km/h (0 Bft) O-NO 0.00 h 0 W/m 3.3 C 4.8 C
23.03.2006 01:00 4.8 C 87 % 1007.3 hPa 0.0 l/m 0.1 km/h (0 Bft) N 0.00 h 0 W/m 2.9 C 4.8 C
23.03.2006 02:00 4.6 C 86 % 1007.5 hPa 0.0 l/m 0.5 km/h (0 Bft) O-NO 0.00 h 0 W/m 2.5 C 4.6 C
23.03.2006 03:00 4.3 C 86 % 1007.6 hPa 0.3 l/m 0.6 km/h (0 Bft) O 0.00 h 0 W/m 2.2 C 4.2 C
23.03.2006 04:00 4.0 C 88 % 1007.6 hPa 0.0 l/m 0.5 km/h (0 Bft) SO 0.00 h 0 W/m 2.2 C 3.9 C
23.03.2006 05:00 3.8 C 90 % 1008.0 hPa 0.3 l/m 0.1 km/h (0 Bft) N 0.00 h 0 W/m 2.3 C 3.8 C
23.03.2006 06:00 3.2 C 91 % 1008.8 hPa 2.6 l/m 0.2 km/h (0 Bft) S-SO 0.00 h 3 W/m 1.8 C 3.2 C
23.03.2006 07:00 2.9 C 93 % 1009.2 hPa 0.3 l/m 0.1 km/h (0 Bft) N 0.00 h 20 W/m 1.8 C 2.9 C
23.03.2006 08:00 3.0 C 92 % 1009.8 hPa 0.0 l/m 2.5 km/h (1 Bft) SO 0.00 h 42 W/m 1.8 C 2.4 C
23.03.2006 09:00 3.3 C 92 % 1010.4 hPa 0.0 l/m 2.0 km/h (1 Bft) SO 0.00 h 79 W/m 2.1 C 3.0 C
23.03.2006 10:00 3.7 C 89 % 1010.8 hPa 0.0 l/m 3.1 km/h (1 Bft) SO 0.00 h 108 W/m 2.0 C 3.1 C
23.03.2006 11:00 4.4 C 85 % 1011.0 hPa 0.0 l/m 10.6 km/h (2 Bft) SO 0.00 h 165 W/m 2.0 C 2.0 C
23.03.2006 12:00 5.5 C 79 % 1011.4 hPa 0.0 l/m 11.2 km/h (2 Bft) SO 0.00 h 291 W/m 2.1 C 3.2 C
23.03.2006 13:00 6.6 C 74 % 1010.8 hPa 0.0 l/m 16.1 km/h (3 Bft) SO 0.00 h 340 W/m 2.3 C 3.5 C
23.03.2006 14:00 7.6 C 70 % 1010.2 hPa 0.0 l/m 15.5 km/h (3 Bft) SO 0.43 h 360 W/m 2.6 C 4.9 C
23.03.2006 15:00 8.1 C 65 % 1010.2 hPa 0.0 l/m 16.8 km/h (3 Bft) SO 0.40 h 320 W/m 1.9 C 5.3 C
23.03.2006 16:00 6.7 C 69 % 1010.3 hPa 0.0 l/m 17.1 km/h (3 Bft) SO 0.00 h 104 W/m 1.5 C 3.6 C
23.03.2006 17:00 5.7 C 72 % 1010.8 hPa 0.0 l/m 17.4 km/h (3 Bft) SO 0.00 h 41 W/m 1.0 C 2.3 C
23.03.2006 18:00 5.1 C 74 % 1011.6 hPa 0.0 l/m 6.8 km/h (2 Bft) SO 0.00 h 10 W/m 0.9 C 3.7 C
23.03.2006 19:00 4.7 C 76 % 1011.7 hPa 0.0 l/m 1.2 km/h (1 Bft) SO 0.00 h 0 W/m 0.8 C 4.5 C
23.03.2006 20:00 4.5 C 76 % 1011.2 hPa 0.0 l/m 0.3 km/h (0 Bft) N 0.00 h 0 W/m 0.5 C 4.5 C
23.03.2006 21:00 4.2 C 77 % 1010.7 hPa 0.0 l/m 0.9 km/h (0 Bft) NO 0.00 h 0 W/m 0.5 C 4.2 C
23.03.2006 22:00 4.0 C 78 % 1010.1 hPa 0.0 l/m 1.1 km/h (1 Bft) N-NO 0.00 h 0 W/m 0.5 C 3.9 C
23.03.2006 23:00 3.9 C 79 % 1009.7 hPa 0.0 l/m 0.7 km/h (0 Bft) O 0.00 h 0 W/m 0.6 C 3.8 C
24.03.2006 00:00 3.8 C 81 % 1008.8 hPa 0.0 l/m 2.8 km/h (1 Bft) O 0.00 h 0 W/m 0.9 C 3.3 C
24.03.2006 01:00 3.6 C 84 % 1008.7 hPa 0.0 l/m 3.5 km/h (1 Bft) O-NO 0.00 h 0 W/m 1.1 C 2.8 C
24.03.2006 02:00 3.6 C 85 % 1007.8 hPa 0.0 l/m 0.6 km/h (0 Bft) SO 0.00 h 0 W/m 1.2 C 3.5 C
24.03.2006 03:00 3.6 C 85 % 1007.3 hPa 0.0 l/m 0.2 km/h (0 Bft) SO 0.00 h 0 W/m 1.3 C 3.6 C
24.03.2006 04:00 3.6 C 85 % 1006.6 hPa 0.0 l/m 0.7 km/h (0 Bft) O 0.00 h 0 W/m 1.3 C 3.4 C
24.03.2006 05:00 3.5 C 86 % 1005.6 hPa 0.0 l/m 0.2 km/h (0 Bft) O-NO 0.00 h 0 W/m 1.4 C 3.5 C
24.03.2006 06:00 3.4 C 86 % 1005.6 hPa 0.0 l/m 0.1 km/h (0 Bft) O 0.00 h 5 W/m 1.3 C 3.4 C
24.03.2006 07:00 3.4 C 87 % 1006.1 hPa 0.0 l/m 2.5 km/h (1 Bft) SO 0.00 h 18 W/m 1.4 C 2.8 C
24.03.2006 08:00 3.4 C 87 % 1006.6 hPa 0.0 l/m 0.5 km/h (0 Bft) SO 0.00 h 31 W/m 1.5 C 3.4 C
24.03.2006 09:00 3.8 C 86 % 1006.6 hPa 0.0 l/m 0.0 km/h (0 Bft) N 0.00 h 57 W/m 1.6 C 3.8 C
24.03.2006 10:00 4.3 C 87 % 1006.5 hPa 0.0 l/m 0.2 km/h (0 Bft) O-NO 0.00 h 113 W/m 2.3 C 4.3 C
24.03.2006 11:00 4.9 C 88 % 1006.4 hPa 0.6 l/m 0.7 km/h (0 Bft) O-NO 0.00 h 199 W/m 3.0 C 4.8 C
24.03.2006 12:00 5.3 C 89 % 1006.4 hPa 0.3 l/m 1.6 km/h (1 Bft) NW 0.00 h 172 W/m 3.6 C 5.2 C
24.03.2006 13:00 6.2 C 89 % 1006.3 hPa 0.3 l/m 0.0 km/h (0 Bft) N 0.00 h 214 W/m 4.4 C 6.2 C
24.03.2006 14:00 8.6 C 81 % 1005.8 hPa 0.0 l/m 0.5 km/h (0 Bft) NO 0.77 h 428 W/m 5.6 C 8.6 C
24.03.2006 15:00 10.5 C 72 % 1005.3 hPa 0.0 l/m 4.7 km/h (1 Bft) SW 0.37 h 310 W/m 5.6 C 10.5 C
24.03.2006 16:00 11.3 C 65 % 1004.5 hPa 0.0 l/m 10.0 km/h (2 Bft) W 0.90 h 302 W/m 4.9 C 11.3 C
24.03.2006 17:00 11.1 C 64 % 1004.5 hPa 0.0 l/m 9.6 km/h (2 Bft) SO 0.77 h 169 W/m 4.6 C 11.1 C
24.03.2006 18:00 9.9 C 68 % 1004.8 hPa 0.0 l/m 9.4 km/h (2 Bft) SO 0.57 h 43 W/m 4.3 C 9.1 C
24.03.2006 19:00 8.8 C 74 % 1005.9 hPa 0.0 l/m 3.6 km/h (1 Bft) SO 0.00 h 0 W/m 4.4 C 8.5 C
24.03.2006 20:00 8.3 C 79 % 1006.0 hPa 0.0 l/m 2.8 km/h (1 Bft) O-SO 0.00 h 0 W/m 4.9 C 8.1 C
24.03.2006 21:00 8.3 C 80 % 1006.7 hPa 0.0 l/m 0.0 km/h (0 Bft) N 0.00 h 0 W/m 5.0 C 8.3 C
24.03.2006 22:00 8.2 C 82 % 1007.0 hPa 0.0 l/m 1.2 km/h (1 Bft) SO 0.00 h 0 W/m 5.3 C 8.0 C
24.03.2006 23:00 8.5 C 82 % 1007.0 hPa 0.0 l/m 5.2 km/h (1 Bft) SO 0.00 h 0 W/m 5.6 C 7.8 C
25.03.2006 00:00 8.8 C 83 % 1007.3 hPa 0.6 l/m 6.2 km/h (2 Bft) S 0.00 h 0 W/m 6.2 C 8.0 C
25.03.2006 01:00 8.0 C 89 % 1008.1 hPa 0.3 l/m 1.9 km/h (1 Bft) SO 0.00 h 0 W/m 6.4 C 7.8 C
25.03.2006 02:00 8.4 C 92 % 1008.0 hPa 0.6 l/m 2.3 km/h (1 Bft) S-SO 0.00 h 0 W/m 7.3 C 8.2 C
25.03.2006 03:00 8.3 C 93 % 1008.0 hPa 0.6 l/m 1.7 km/h (1 Bft) S-SW 0.00 h 0 W/m 7.2 C 8.2 C
25.03.2006 04:00 8.0 C 94 % 1008.5 hPa 0.0 l/m 2.6 km/h (1 Bft) W-SW 0.00 h 0 W/m 7.1 C 7.7 C
25.03.2006 05:00 8.0 C 96 % 1009.3 hPa 0.0 l/m 0.4 km/h (0 Bft) S-SW 0.00 h 0 W/m 7.3 C 8.0 C
25.03.2006 06:00 9.0 C 96 % 1010.0 hPa 0.0 l/m 3.4 km/h (1 Bft) SW 0.00 h 14 W/m 8.4 C 8.6 C
25.03.2006 07:00 9.6 C 88 % 1010.7 hPa 0.3 l/m 9.1 km/h (2 Bft) W-NW 0.00 h 54 W/m 7.7 C 8.4 C
25.03.2006 08:00 9.6 C 82 % 1011.7 hPa 0.0 l/m 7.3 km/h (2 Bft) NW 0.00 h 93 W/m 6.7 C 8.5 C
25.03.2006 09:00 10.5 C 81 % 1012.3 hPa 0.0 l/m 0.9 km/h (0 Bft) NW 0.00 h 157 W/m 7.5 C 10.5 C
25.03.2006 10:00 13.3 C 63 % 1012.6 hPa 0.0 l/m 11.5 km/h (2 Bft) NW 0.73 h 568 W/m 6.3 C 13.3 C
25.03.2006 11:00 11.7 C 74 % 1013.4 hPa 0.3 l/m 14.6 km/h (3 Bft) NW 0.00 h 197 W/m 7.1 C 11.7 C
25.03.2006 12:00 12.7 C 67 % 1013.7 hPa 0.0 l/m 14.3 km/h (3 Bft) W-NW 0.10 h 246 W/m 6.7 C 12.7 C
25.03.2006 13:00 13.7 C 63 % 1013.6 hPa 0.0 l/m 19.6 km/h (3 Bft) NW 0.50 h 467 W/m 6.6 C 13.7 C
25.03.2006 14:00 14.7 C 51 % 1013.2 hPa 0.0 l/m 24.7 km/h (4 Bft) NW 0.30 h 347 W/m 4.8 C 14.7 C
25.03.2006 15:00 15.9 C 44 % 1013.3 hPa 0.0 l/m 23.4 km/h (4 Bft) NW 0.57 h 423 W/m 3.7 C 15.9 C
25.03.2006 16:00 15.6 C 43 % 1013.3 hPa 0.0 l/m 21.5 km/h (4 Bft) NW 0.08 h 177 W/m 3.0 C 15.6 C
25.03.2006 17:00 15.1 C 43 % 1013.6 hPa 0.0 l/m 9.1 km/h (2 Bft) W-NW 0.00 h 58 W/m 2.6 C 15.1 C
25.03.2006 18:00 14.3 C 46 % 1014.5 hPa 0.0 l/m 3.8 km/h (1 Bft) NW 0.00 h 13 W/m 2.8 C 14.3 C
25.03.2006 19:00 13.4 C 51 % 1015.2 hPa 0.0 l/m 13.7 km/h (3 Bft) NW 0.00 h 0 W/m 3.4 C 13.4 C
25.03.2006 20:00 12.6 C 58 % 1015.8 hPa 0.0 l/m 4.3 km/h (1 Bft) NW 0.00 h 0 W/m 4.5 C 12.6 C
25.03.2006 21:00 12.7 C 58 % 1016.2 hPa 0.3 l/m 9.0 km/h (2 Bft) NW 0.00 h 0 W/m 4.5 C 12.7 C
25.03.2006 22:00 10.8 C 79 % 1017.1 hPa 0.3 l/m 1.9 km/h (1 Bft) W-NW 0.00 h 0 W/m 7.3 C 10.8 C
25.03.2006 23:00 10.2 C 88 % 1017.7 hPa 2.0 l/m 4.8 km/h (1 Bft) S-SO 0.00 h 0 W/m 8.3 C 10.2 C
26.03.2006 00:00 10.2 C 91 % 1018.0 hPa 2.6 l/m 11.6 km/h (2 Bft) S 0.00 h 0 W/m 8.8 C 10.2 C
26.03.2006 01:00 10.2 C 92 % 1018.2 hPa 0.6 l/m 11.5 km/h (2 Bft) S 0.00 h 0 W/m 9.0 C 10.2 C
26.03.2006 03:00 10.1 C 93 % 1018.2 hPa 0.0 l/m 8.5 km/h (2 Bft) SW 0.00 h 0 W/m 9.1 C 10.1 C
26.03.2006 04:00 10.0 C 93 % 1017.9 hPa 0.0 l/m 3.2 km/h (1 Bft) S 0.00 h 0 W/m 8.9 C 9.6 C
26.03.2006 05:00 10.1 C 94 % 1017.2 hPa 0.0 l/m 0.6 km/h (0 Bft) S 0.00 h 0 W/m 9.1 C 10.0 C
26.03.2006 06:00 10.2 C 92 % 1017.1 hPa 0.0 l/m 3.0 km/h (1 Bft) S 0.00 h 0 W/m 8.9 C 10.2 C
26.03.2006 07:00 10.1 C 89 % 1018.0 hPa 0.3 l/m 1.3 km/h (1 Bft) S-SO 0.00 h 5 W/m 8.4 C 10.1 C
26.03.2006 08:00 10.3 C 90 % 1018.2 hPa 0.3 l/m 1.4 km/h (1 Bft) SO 0.00 h 34 W/m 8.7 C 10.3 C
26.03.2006 09:00 10.9 C 84 % 1018.1 hPa 0.0 l/m 0.6 km/h (0 Bft) SO 0.00 h 63 W/m 8.3 C 10.9 C
26.03.2006 10:00 11.7 C 78 % 1018.0 hPa 0.0 l/m 0.8 km/h (0 Bft) S-SW 0.03 h 192 W/m 8.0 C 11.7 C
26.03.2006 11:00 13.4 C 69 % 1018.0 hPa 0.0 l/m 2.4 km/h (1 Bft) S-SO 0.37 h 395 W/m 7.8 C 13.4 C
26.03.2006 12:00 15.3 C 60 % 1017.5 hPa 0.0 l/m 7.1 km/h (2 Bft) SO 0.17 h 343 W/m 7.7 C 15.3 C
26.03.2006 13:00 17.1 C 54 % 1016.7 hPa 0.0 l/m 3.9 km/h (1 Bft) SO 0.55 h 525 W/m 7.6 C 17.1 C
26.03.2006 14:00 19.1 C 49 % 1015.7 hPa 0.0 l/m 2.6 km/h (1 Bft) S 0.95 h 676 W/m 8.1 C 19.1 C
26.03.2006 15:00 20.7 C 43 % 1014.6 hPa 0.0 l/m 0.5 km/h (0 Bft) NW 0.93 h 581 W/m 7.5 C 20.7 C
26.03.2006 16:00 21.9 C 39 % 1013.5 hPa 0.0 l/m 0.3 km/h (0 Bft) N-NW 0.93 h 491 W/m 7.5 C 21.9 C
26.03.2006 17:00 22.1 C 38 % 1012.6 hPa 0.0 l/m 0.3 km/h (0 Bft) NW 0.97 h 357 W/m 7.0 C 22.1 C
26.03.2006 18:00 21.3 C 41 % 1012.6 hPa 0.0 l/m 0.1 km/h (0 Bft) N-NW 0.93 h 185 W/m 7.4 C 21.3 C
26.03.2006 19:00 18.3 C 54 % 1013.0 hPa 0.0 l/m 5.2 km/h (1 Bft) SO 0.23 h 36 W/m 8.8 C 18.3 C
26.03.2006 20:00 15.0 C 62 % 1013.4 hPa 0.0 l/m 2.6 km/h (1 Bft) SO 0.00 h 0 W/m 7.8 C 15.0 C
26.03.2006 21:00 13.0 C 69 % 1013.6 hPa 0.0 l/m 0.0 km/h (0 Bft) N 0.00 h 0 W/m 7.4 C 13.0 C
26.03.2006 22:00 12.3 C 74 % 1013.7 hPa 0.0 l/m 0.0 km/h (0 Bft) N 0.00 h 0 W/m 7.8 C 12.3 C
26.03.2006 23:00 11.5 C 80 % 1013.8 hPa 0.0 l/m 0.0 km/h (0 Bft) N 0.00 h 0 W/m 8.1 C 11.5 C
Min-Datum _ 20.03.06 20.03.06 22.03.06 - 20.03.06 - - - 20.03.06 20.03.06
_ Min-Zeit 06:22 14:26 15:40 - 00:00 - - - 14:50 06:22
Minimum _ -4.4 C 20 % 1002.9 hPa - 0.0 km/h (0 Bft) - - - -8.0 C -4.4 C
Max-Datum _ 26.03.06 21.03.06 26.03.06 22.03.06 25.03.06 - 20.03.06 25.03.06 26.03.06 26.03.06
_ Max-Zeit 17:05 23:00 11:23 22:36 14:42 - 08:03 13:12 19:07 17:05
Maximum _ 22.5 C 100 % 1018.9 hPa 3.9 l/m 40.3 km/h
NW (6 Bft)
- 0.05 h 901 W/m 11.3 C 22.5 C
Durchschnitt _ 8.1 C 77 % 1009.5 hPa #20.8 l/m 3.5 km/h (1 Bft) SO #25:48 h 222 W/m 3.8 C 7.9 C
© Kaiko 2006